H. Lee White — WZD2465 — position and weather

sailwx.info

Track history (hours):
 
Tides and Currents Weather Stations Pressure Air Temp Water Temp Dewpoint Dewpoint Depression Visibility Wind Speed Wind Dir Waves Ship Positions

H. Lee White

Owner: AMERICAN STEAMSHIP COMPANY, WILLIAMSVILLE, NY. More information available from US FCC via Universal Licensing System and Coast Guard Vessel Documentation Center.

Last reported at 2017-Aug-18 08:30 UTC. Time now 2017-Aug-18 08:44 UTC.
Position N 46°45' W 092°07'.

Length 214 m; draft 8.5 m.

Type: Cargo ship. MMSI: 366938770.

Date/timePositionNaut miles runAvg speedWind from/ knotsBaromVisibWave heightAir tempDewpointWater temp
2017-Aug-18 08:30N 46°45' W 092°07'0 0.0
2017-Aug-18 08:00N 46°45' W 092°07'0 0.0
2017-Aug-18 07:30N 46°45' W 092°07'1 1.8
2017-Aug-18 07:00N 46°45' W 092°06'1 2.1
2017-Aug-18 06:30N 46°44' W 092°05'0 0.4
2017-Aug-18 06:00N 46°44' W 092°05'0 0.0
2017-Aug-18 05:30N 46°44' W 092°05'0 0.0
2017-Aug-18 05:00N 46°44' W 092°04'0 0.0
2017-Aug-18 04:30N 46°44' W 092°05'0 0.0
2017-Aug-18 04:00N 46°44' W 092°05'0 0.0
2017-Aug-18 03:30N 46°44' W 092°05'0 0.0
2017-Aug-18 03:00N 46°44' W 092°05'0 0.0
2017-Aug-18 02:30N 46°44' W 092°05'0 0.0
2017-Aug-18 02:00N 46°44' W 092°05'0 0.0
2017-Aug-18 01:30N 46°44' W 092°05'0 0.0
2017-Aug-18 01:00N 46°44' W 092°05'0 0.0
2017-Aug-18 00:30N 46°44' W 092°05'0 0.0
2017-Aug-18 00:00N 46°44' W 092°05'0 0.0
2017-Aug-17 23:30N 46°44' W 092°05'0 0.0
2017-Aug-17 23:00N 46°44' W 092°05'0 0.0
2017-Aug-17 22:30N 46°44' W 092°05'0 0.0
2017-Aug-17 22:00N 46°44' W 092°05'0 0.0
2017-Aug-17 21:30N 46°44' W 092°05'0 0.4
2017-Aug-17 21:00N 46°44' W 092°05'2 3.3
2017-Aug-17 20:30N 46°46' W 092°06'3 6.6
2017-Aug-17 20:00N 46°48' W 092°02'612.4
2017-Aug-17 19:30N 46°51' W 091°54'713.6
2017-Aug-17 19:00N 46°55' W 091°46'6012.0
2017-Aug-17 14:00N 47°36' W 090°42'4140.9 030 / 111004.0 5.4 15.5 13.8
2017-Aug-17 13:00N 47°30' W 091°42'3636.5 020 / 191004.3 5.4 15.5 13.8
2017-Aug-17 12:00N 47°30' W 090°48'8 8.1 040 / 241005.7 5.4 16.1 12.7
2017-Aug-17 11:00N 47°30' W 090°36'3511.5 060 / 221005.7 5.4 16.4 11.6
2017-Aug-17 08:00N 47°42' W 089°48'3712.3 050 / 181010.110.8 15.3 11.6
2017-Aug-17 05:00N 47°48' W 088°54'3612.1 060 / 101012.8 5.4 13.8 11.1
2017-Aug-17 02:00N 47°48' W 088°00'1616.1 100 / 91014.510.8 13.8 9.4
2017-Aug-17 01:00N 47°48' W 087°36'1010.0 100 / 131015.210.8 14.4 11.6
2017-Aug-17 00:00N 47°54' W 087°24'10812.0 130 / 131015.210.8 15.5 12.2
2017-Aug-16 15:00N 46°54' W 085°12'1010.2 100 / 111015.910.8 19.4 13.3
2017-Aug-16 14:00N 46°48' W 085°00'39 6.7 110 / 91015.910.8 18.3 12.2
2017-Aug-16 08:10N 46°25' W 084°15'3 8.9
2017-Aug-16 07:51N 46°22' W 084°13'9 7.5
2017-Aug-16 06:42N 46°15' W 084°06'2 7.9
2017-Aug-16 06:28N 46°13' W 084°07'4 9.3
2017-Aug-16 06:00N 46°10' W 084°03'610.2
2017-Aug-16 05:23N 46°04' W 083°60'511.9
2017-Aug-16 04:58N 46°02' W 083°53'511.3
2017-Aug-16 04:29N 45°56' W 083°54'612.0
2017-Aug-16 04:00N 45°53' W 084°01'611.9
2017-Aug-16 03:30N 45°51' W 084°09'612.1
2017-Aug-16 03:00N 45°57' W 084°14'3 6.2
2017-Aug-16 02:30N 45°59' W 084°17'0 0.0
2017-Aug-16 02:00N 45°59' W 084°17'0 0.0
2017-Aug-16 01:22N 45°59' W 084°17'0 0.0
2017-Aug-16 01:00N 45°59' W 084°17'0 0.0
2017-Aug-16 00:29N 45°59' W 084°17'0 0.0
2017-Aug-15 23:57N 45°59' W 084°17'0 0.0
2017-Aug-15 23:18N 45°59' W 084°17'0 0.0
2017-Aug-15 22:59N 45°59' W 084°17'0 0.0
2017-Aug-15 22:22N 45°59' W 084°17'0 0.0
2017-Aug-15 21:56N 45°59' W 084°17'0 0.1
2017-Aug-15 21:29N 45°59' W 084°17'0 0.0
2017-Aug-15 20:58N 45°59' W 084°17'0 0.0
2017-Aug-15 20:30N 45°59' W 084°17'0 0.0
2017-Aug-15 20:00N 45°59' W 084°17'0 0.0
2017-Aug-15 19:30N 45°59' W 084°17'0 0.0
2017-Aug-15 18:58N 45°59' W 084°17'0 0.0
2017-Aug-15 18:29N 45°59' W 084°17'0 0.0
2017-Aug-15 18:00N 45°59' W 084°17'0 0.0
2017-Aug-15 17:30N 45°59' W 084°17'0 0.0
2017-Aug-15 16:57N 45°59' W 084°17'0 0.0
2017-Aug-15 16:28N 45°59' W 084°17'0 0.3
2017-Aug-15 15:59N 45°59' W 084°16'1 2.0
2017-Aug-15 15:30N 45°58' W 084°15'4 7.7
2017-Aug-15 14:59N 45°55' W 084°13'612.6
2017-Aug-15 14:30N 45°49' W 084°08'612.3
2017-Aug-15 14:00N 45°44' W 084°05'612.6
2017-Aug-15 13:30N 45°37' W 084°04'1 2.8
2017-Aug-15 13:00N 45°37' W 084°05'2 3.9
2017-Aug-15 12:30N 45°38' W 084°08'2 3.9
2017-Aug-15 12:00N 45°38' W 084°10'4316.1
2017-Aug-15 12:00N 45°42' W 084°12'3 5.0 150 / 101010.810.8 18.3 16.6
2017-Aug-15 11:29N 45°40' W 084°14'612.0
2017-Aug-15 11:00N 45°41' W 084°22'612.5
2017-Aug-15 10:30N 45°43' W 084°31'612.7
2017-Aug-15 10:00N 45°47' W 084°38'612.4
2017-Aug-15 09:30N 45°49' W 084°46'612.6
2017-Aug-15 09:00N 45°50' W 084°55'612.5
2017-Aug-15 08:30N 45°51' W 085°04'612.5
2017-Aug-15 08:00N 45°52' W 085°13'612.5
2017-Aug-15 07:30N 45°53' W 085°22'612.4
2017-Aug-15 07:00N 45°53' W 085°31'612.4
2017-Aug-15 06:30N 45°53' W 085°40'612.2
2017-Aug-15 06:00N 45°51' W 085°48'612.4
2017-Aug-15 05:30N 45°48' W 085°56'612.3
2017-Aug-15 05:00N 45°45' W 086°03'812.3
2017-Aug-15 04:24N 45°41' W 086°12'512.3
2017-Aug-15 04:00N 45°39' W 086°18'612.5
2017-Aug-15 03:30N 45°35' W 086°25'612.8
2017-Aug-15 03:00N 45°31' W 086°33'612.6
2017-Aug-15 02:30N 45°28' W 086°40'611.6
2017-Aug-15 02:00N 45°26' W 086°48'612.3
2017-Aug-15 01:30N 45°26' W 086°57'712.9
2017-Aug-15 01:00N 45°24' W 087°06'3210.6 1009.810.8 19.9 16.6
2017-Aug-14 22:00N 45°48' W 087°36'58 4.0 350 / 51010.110.8 20.9 19.9
2017-Aug-14 07:40N 44°50' W 087°41'1111.9
2017-Aug-14 06:45N 44°59' W 087°31'311.9
2017-Aug-14 06:30N 45°01' W 087°29'2511.0
2017-Aug-14 04:13N 45°21' W 087°07'311.9
2017-Aug-14 04:00N 45°22' W 087°04'611.9
2017-Aug-14 03:30N 45°26' W 086°57'611.5
2017-Aug-14 03:00N 45°26' W 086°49'510.9
2017-Aug-14 02:30N 45°24' W 086°42'5 7.8
2017-Aug-14 01:54N 45°19' W 086°40'2 5.1
2017-Aug-14 01:30N 45°21' W 086°38'4 8.7
2017-Aug-14 01:00N 45°24' W 086°34'611.8
2017-Aug-14 00:30N 45°28' W 086°28'611.8
2017-Aug-14 00:00N 45°32' W 086°22'611.8
2017-Aug-13 23:30N 45°36' W 086°15'611.9
2017-Aug-13 23:00N 45°40' W 086°09'611.7
2017-Aug-13 22:30N 45°43' W 086°02'611.6
2017-Aug-13 22:00N 45°46' W 085°55'6404.0
2017-Aug-13 22:00N 45°42' W 085°48'612.9 200 / 171015.210.8 21.2 16.1
2017-Aug-13 21:30N 45°48' W 085°47'611.5
2017-Aug-13 21:00N 45°51' W 085°40'611.3
2017-Aug-13 20:30N 45°54' W 085°33'611.6
2017-Aug-13 20:00N 45°53' W 085°24'611.9
2017-Aug-13 19:30N 45°53' W 085°16'611.9
2017-Aug-13 19:00N 45°52' W 085°08'612.0
2017-Aug-13 18:30N 45°51' W 084°59'611.9
2017-Aug-13 18:00N 45°50' W 084°51'611.8
2017-Aug-13 17:30N 45°49' W 084°43'611.9
2017-Aug-13 17:00N 45°46' W 084°35'612.0
2017-Aug-13 16:30N 45°42' W 084°28'611.6
2017-Aug-13 16:00N 45°41' W 084°20'911.8
2017-Aug-13 15:17N 45°39' W 084°08'412.3
2017-Aug-13 15:00N 45°38' W 084°04'612.2
2017-Aug-13 14:30N 45°35' W 083°56'611.7
2017-Aug-13 14:01N 45°31' W 083°50'611.8
2017-Aug-13 13:30N 45°26' W 083°46'1 2.2
2017-Aug-13 13:00N 45°25' W 083°47'0 0.2
2017-Aug-13 12:30N 45°25' W 083°47'0 0.0
2017-Aug-13 12:00N 45°25' W 083°47'0 0.1
2017-Aug-13 11:30N 45°25' W 083°47'0 0.0
2017-Aug-13 11:00N 45°25' W 083°47'0 0.0
2017-Aug-13 10:30N 45°25' W 083°47'0 0.0
2017-Aug-13 10:00N 45°25' W 083°47'0 0.0
2017-Aug-13 09:30N 45°25' W 083°47'0 0.0
2017-Aug-13 09:00N 45°25' W 083°47'0 0.0
2017-Aug-13 08:30N 45°25' W 083°47'0 0.0
2017-Aug-13 08:00N 45°25' W 083°47'0 0.0
2017-Aug-13 07:30N 45°25' W 083°47'0 0.0
2017-Aug-13 07:00N 45°25' W 083°47'0 0.0
2017-Aug-13 06:30N 45°25' W 083°47'0 0.0
2017-Aug-13 06:00N 45°25' W 083°47'0 0.0
2017-Aug-13 05:30N 45°25' W 083°47'0 0.0
2017-Aug-13 05:00N 45°25' W 083°47'0 0.0
2017-Aug-13 04:30N 45°25' W 083°47'0 0.0
2017-Aug-13 04:00N 45°25' W 083°47'0 0.0
2017-Aug-13 03:30N 45°25' W 083°47'0 0.0
2017-Aug-13 03:00N 45°25' W 083°47'0 0.0
2017-Aug-13 02:30N 45°25' W 083°47'0 0.0
2017-Aug-13 02:00N 45°25' W 083°47'0 0.0
2017-Aug-13 01:30N 45°25' W 083°47'0 0.0
2017-Aug-13 01:00N 45°25' W 083°47'0 0.0
2017-Aug-13 00:30N 45°25' W 083°47'0 0.0
2017-Aug-13 00:00N 45°25' W 083°47'0 0.0
2017-Aug-12 23:30N 45°25' W 083°47'0 0.0
2017-Aug-12 23:00N 45°25' W 083°47'0 0.0
2017-Aug-12 22:30N 45°25' W 083°47'0 0.0
2017-Aug-12 22:00N 45°25' W 083°47'0 0.0
2017-Aug-12 21:30N 45°25' W 083°47'0 0.0
2017-Aug-12 21:00N 45°25' W 083°47'0 0.1
2017-Aug-12 20:30N 45°25' W 083°47'2 3.6
2017-Aug-12 20:00N 45°26' W 083°45'3 5.8
2017-Aug-12 19:30N 45°26' W 083°41'510.5
2017-Aug-12 19:00N 45°25' W 083°33'611.9
2017-Aug-12 18:30N 45°22' W 083°26'7711.8
2017-Aug-12 12:00N 44°12' W 082°42'3115.6 160 / 141011.110.8 18.3 15.5
2017-Aug-12 10:00N 43°42' W 082°30'6 6.0 280 / 161011.810.8 15.7 16.1
2017-Aug-12 09:00N 43°36' W 082°30'111 5.1 270 / 121011.810.8 20.2 15.5
2017-Aug-11 11:00N 41°54' W 081°30'7 0.5 180 / 181016.2 5.4 21.2 17.7
2017-Aug-10 20:00N 41°48' W 081°24'63 8.9 090 / 51019.2 5.4 26.3 22.2
2017-Aug-10 13:00N 41°48' W 082°48'1110.8 170 / 21020.310.8 24.4 19.4
2017-Aug-10 12:00N 41°54' W 083°00'104 8.7 1019.910.8 27.2 19.4
2017-Aug-10 00:00N 43°36' W 082°30'3010.0 150 / 141019.210.8 22.7 17.7
2017-Aug-09 21:00N 44°06' W 082°30'3812.7 120 / 81019.610.8 26.2 17.7
2017-Aug-09 18:00N 44°42' W 082°48'4013.3 070 / 121015.9 26.1
2017-Aug-09 15:00N 45°18' W 083°12'1316.2 1019.910.8 26.6 14.4
2017-Aug-09 14:11N 45°29' W 083°21'210.2
2017-Aug-09 14:00N 45°30' W 083°24'149.7 1020.310.8 24.9 14.4
2017-Aug-09 13:58N 45°31' W 083°24'612.4
2017-Aug-09 13:30N 45°36' W 083°29'612.3
2017-Aug-09 13:00N 45°41' W 083°35'2173.3
2017-Aug-09 13:00N 45°42' W 083°36'5 9.7 1018.910.8 18.8 14.9
2017-Aug-09 12:28N 45°46' W 083°41'2 4.8
2017-Aug-09 12:00N 45°48' W 083°42'4527.5 350 / 11018.610.8 18.8 12.7
2017-Aug-09 11:59N 45°51' W 083°46'612.5
2017-Aug-09 11:30N 45°55' W 083°52'710.8
2017-Aug-09 10:53N 46°01' W 083°55'12 9.6
2017-Aug-09 09:40N 46°11' W 084°05'210.6
2017-Aug-09 09:30N 46°12' W 084°07'4 7.6
2017-Aug-09 08:56N 46°15' W 084°11'3 5.8
2017-Aug-09 08:29N 46°17' W 084°13'4 7.9
2017-Aug-09 08:00N 46°21' W 084°13'4 8.2
2017-Aug-09 07:29N 46°25' W 084°15'45 7.0
2017-Aug-09 01:00N 46°48' W 085°12'1413.7 260 / 91016.910.8 14.9 9.9
2017-Aug-09 00:00N 46°54' W 085°30'17 8.7 280 / 101017.210.8 14.4 11.1
2017-Aug-08 22:00N 47°00' W 085°54'7913.2 320 / 121016.9 5.4 16.2 9.9
2017-Aug-08 16:00N 47°30' W 087°42'1717.3 270 / 121017.2 5.4 17.2 11.1
2017-Aug-08 15:00N 47°36' W 088°06'8 8.1 240 / 101016.510.8 18.8 9.9
2017-Aug-08 14:00N 47°36' W 088°18'1717.3 260 / 61016.210.8 17.7 9.4
2017-Aug-08 13:00N 47°30' W 088°42'4 4.1 290 / 151015.910.8 16.1 9.4
2017-Aug-08 12:00N 47°30' W 088°48'2110.6 290 / 151015.910.8 16.1 9.4
2017-Aug-08 10:00N 47°24' W 089°18'   260 / 181016.210.8 17.6 10.5
Track history (hours):
 
Tides and Currents Weather Stations Pressure Air Temp Water Temp Dewpoint Dewpoint Depression Visibility Wind Speed Wind Dir Waves Ship Positions

H. Lee White

Owner: AMERICAN STEAMSHIP COMPANY, WILLIAMSVILLE, NY. More information available from US FCC via Universal Licensing System and Coast Guard Vessel Documentation Center.

Last reported at 2017-Aug-18 08:30 UTC. Time now 2017-Aug-18 08:44 UTC.
Position N 46°45' W 092°07'.

Length 214 m; draft 8.5 m.

Type: Cargo ship. MMSI: 366938770.

Date/timePositionNaut miles runAvg speedWind from/ knotsBaromVisibWave heightAir tempDewpointWater temp
2017-Aug-18 08:30N 46°45' W 092°07'0 0.0
2017-Aug-18 08:00N 46°45' W 092°07'0 0.0
2017-Aug-18 07:30N 46°45' W 092°07'1 1.8
2017-Aug-18 07:00N 46°45' W 092°06'1 2.1
2017-Aug-18 06:30N 46°44' W 092°05'0 0.4
2017-Aug-18 06:00N 46°44' W 092°05'0 0.0
2017-Aug-18 05:30N 46°44' W 092°05'0 0.0
2017-Aug-18 05:00N 46°44' W 092°04'0 0.0
2017-Aug-18 04:30N 46°44' W 092°05'0 0.0
2017-Aug-18 04:00N 46°44' W 092°05'0 0.0
2017-Aug-18 03:30N 46°44' W 092°05'0 0.0
2017-Aug-18 03:00N 46°44' W 092°05'0 0.0
2017-Aug-18 02:30N 46°44' W 092°05'0 0.0
2017-Aug-18 02:00N 46°44' W 092°05'0 0.0
2017-Aug-18 01:30N 46°44' W 092°05'0 0.0
2017-Aug-18 01:00N 46°44' W 092°05'0 0.0
2017-Aug-18 00:30N 46°44' W 092°05'0 0.0
2017-Aug-18 00:00N 46°44' W 092°05'0 0.0
2017-Aug-17 23:30N 46°44' W 092°05'0 0.0
2017-Aug-17 23:00N 46°44' W 092°05'0 0.0
2017-Aug-17 22:30N 46°44' W 092°05'0 0.0
2017-Aug-17 22:00N 46°44' W 092°05'0 0.0
2017-Aug-17 21:30N 46°44' W 092°05'0 0.4
2017-Aug-17 21:00N 46°44' W 092°05'2 3.3
2017-Aug-17 20:30N 46°46' W 092°06'3 6.6
2017-Aug-17 20:00N 46°48' W 092°02'612.4
2017-Aug-17 19:30N 46°51' W 091°54'713.6
2017-Aug-17 19:00N 46°55' W 091°46'6012.0
2017-Aug-17 14:00N 47°36' W 090°42'4140.9 030 / 111004.0 5.4 15.5 13.8
2017-Aug-17 13:00N 47°30' W 091°42'3636.5 020 / 191004.3 5.4 15.5 13.8
2017-Aug-17 12:00N 47°30' W 090°48'8 8.1 040 / 241005.7 5.4 16.1 12.7
2017-Aug-17 11:00N 47°30' W 090°36'3511.5 060 / 221005.7 5.4 16.4 11.6
2017-Aug-17 08:00N 47°42' W 089°48'3712.3 050 / 181010.110.8 15.3 11.6
2017-Aug-17 05:00N 47°48' W 088°54'3612.1 060 / 101012.8 5.4 13.8 11.1
2017-Aug-17 02:00N 47°48' W 088°00'1616.1 100 / 91014.510.8 13.8 9.4
2017-Aug-17 01:00N 47°48' W 087°36'1010.0 100 / 131015.210.8 14.4 11.6
2017-Aug-17 00:00N 47°54' W 087°24'10812.0 130 / 131015.210.8 15.5 12.2
2017-Aug-16 15:00N 46°54' W 085°12'1010.2 100 / 111015.910.8 19.4 13.3
2017-Aug-16 14:00N 46°48' W 085°00'39 6.7 110 / 91015.910.8 18.3 12.2
2017-Aug-16 08:10N 46°25' W 084°15'3 8.9
2017-Aug-16 07:51N 46°22' W 084°13'9 7.5
2017-Aug-16 06:42N 46°15' W 084°06'2 7.9
2017-Aug-16 06:28N 46°13' W 084°07'4 9.3
2017-Aug-16 06:00N 46°10' W 084°03'610.2
2017-Aug-16 05:23N 46°04' W 083°60'511.9
2017-Aug-16 04:58N 46°02' W 083°53'511.3
2017-Aug-16 04:29N 45°56' W 083°54'612.0
2017-Aug-16 04:00N 45°53' W 084°01'611.9
2017-Aug-16 03:30N 45°51' W 084°09'612.1
2017-Aug-16 03:00N 45°57' W 084°14'3 6.2
2017-Aug-16 02:30N 45°59' W 084°17'0 0.0
2017-Aug-16 02:00N 45°59' W 084°17'0 0.0
2017-Aug-16 01:22N 45°59' W 084°17'0 0.0
2017-Aug-16 01:00N 45°59' W 084°17'0 0.0
2017-Aug-16 00:29N 45°59' W 084°17'0 0.0
2017-Aug-15 23:57N 45°59' W 084°17'0 0.0
2017-Aug-15 23:18N 45°59' W 084°17'0 0.0
2017-Aug-15 22:59N 45°59' W 084°17'0 0.0
2017-Aug-15 22:22N 45°59' W 084°17'0 0.0
2017-Aug-15 21:56N 45°59' W 084°17'0 0.1
2017-Aug-15 21:29N 45°59' W 084°17'0 0.0
2017-Aug-15 20:58N 45°59' W 084°17'0 0.0
2017-Aug-15 20:30N 45°59' W 084°17'0 0.0
2017-Aug-15 20:00N 45°59' W 084°17'0 0.0
2017-Aug-15 19:30N 45°59' W 084°17'0 0.0
2017-Aug-15 18:58N 45°59' W 084°17'0 0.0
2017-Aug-15 18:29N 45°59' W 084°17'0 0.0
2017-Aug-15 18:00N 45°59' W 084°17'0 0.0
2017-Aug-15 17:30N 45°59' W 084°17'0 0.0
2017-Aug-15 16:57N 45°59' W 084°17'0 0.0
2017-Aug-15 16:28N 45°59' W 084°17'0 0.3
2017-Aug-15 15:59N 45°59' W 084°16'1 2.0
2017-Aug-15 15:30N 45°58' W 084°15'4 7.7
2017-Aug-15 14:59N 45°55' W 084°13'612.6
2017-Aug-15 14:30N 45°49' W 084°08'612.3
2017-Aug-15 14:00N 45°44' W 084°05'612.6
2017-Aug-15 13:30N 45°37' W 084°04'1 2.8
2017-Aug-15 13:00N 45°37' W 084°05'2 3.9
2017-Aug-15 12:30N 45°38' W 084°08'2 3.9
2017-Aug-15 12:00N 45°38' W 084°10'4316.1
2017-Aug-15 12:00N 45°42' W 084°12'3 5.0 150 / 101010.810.8 18.3 16.6
2017-Aug-15 11:29N 45°40' W 084°14'612.0
2017-Aug-15 11:00N 45°41' W 084°22'612.5
2017-Aug-15 10:30N 45°43' W 084°31'612.7
2017-Aug-15 10:00N 45°47' W 084°38'612.4
2017-Aug-15 09:30N 45°49' W 084°46'612.6
2017-Aug-15 09:00N 45°50' W 084°55'612.5
2017-Aug-15 08:30N 45°51' W 085°04'612.5
2017-Aug-15 08:00N 45°52' W 085°13'612.5
2017-Aug-15 07:30N 45°53' W 085°22'612.4
2017-Aug-15 07:00N 45°53' W 085°31'612.4
2017-Aug-15 06:30N 45°53' W 085°40'612.2
2017-Aug-15 06:00N 45°51' W 085°48'612.4
2017-Aug-15 05:30N 45°48' W 085°56'612.3
2017-Aug-15 05:00N 45°45' W 086°03'812.3
2017-Aug-15 04:24N 45°41' W 086°12'512.3
2017-Aug-15 04:00N 45°39' W 086°18'612.5
2017-Aug-15 03:30N 45°35' W 086°25'612.8
2017-Aug-15 03:00N 45°31' W 086°33'612.6
2017-Aug-15 02:30N 45°28' W 086°40'611.6
2017-Aug-15 02:00N 45°26' W 086°48'612.3
2017-Aug-15 01:30N 45°26' W 086°57'712.9
2017-Aug-15 01:00N 45°24' W 087°06'3210.6 1009.810.8 19.9 16.6
2017-Aug-14 22:00N 45°48' W 087°36'58 4.0 350 / 51010.110.8 20.9 19.9
2017-Aug-14 07:40N 44°50' W 087°41'1111.9
2017-Aug-14 06:45N 44°59' W 087°31'311.9
2017-Aug-14 06:30N 45°01' W 087°29'2511.0
2017-Aug-14 04:13N 45°21' W 087°07'311.9
2017-Aug-14 04:00N 45°22' W 087°04'611.9
2017-Aug-14 03:30N 45°26' W 086°57'611.5
2017-Aug-14 03:00N 45°26' W 086°49'510.9
2017-Aug-14 02:30N 45°24' W 086°42'5 7.8
2017-Aug-14 01:54N 45°19' W 086°40'2 5.1
2017-Aug-14 01:30N 45°21' W 086°38'4 8.7
2017-Aug-14 01:00N 45°24' W 086°34'611.8
2017-Aug-14 00:30N 45°28' W 086°28'611.8
2017-Aug-14 00:00N 45°32' W 086°22'611.8
2017-Aug-13 23:30N 45°36' W 086°15'611.9
2017-Aug-13 23:00N 45°40' W 086°09'611.7
2017-Aug-13 22:30N 45°43' W 086°02'611.6
2017-Aug-13 22:00N 45°46' W 085°55'6404.0
2017-Aug-13 22:00N 45°42' W 085°48'612.9 200 / 171015.210.8 21.2 16.1
2017-Aug-13 21:30N 45°48' W 085°47'611.5
2017-Aug-13 21:00N 45°51' W 085°40'611.3
2017-Aug-13 20:30N 45°54' W 085°33'611.6
2017-Aug-13 20:00N 45°53' W 085°24'611.9
2017-Aug-13 19:30N 45°53' W 085°16'611.9
2017-Aug-13 19:00N 45°52' W 085°08'612.0
2017-Aug-13 18:30N 45°51' W 084°59'611.9
2017-Aug-13 18:00N 45°50' W 084°51'611.8
2017-Aug-13 17:30N 45°49' W 084°43'611.9
2017-Aug-13 17:00N 45°46' W 084°35'612.0
2017-Aug-13 16:30N 45°42' W 084°28'611.6
2017-Aug-13 16:00N 45°41' W 084°20'911.8
2017-Aug-13 15:17N 45°39' W 084°08'412.3
2017-Aug-13 15:00N 45°38' W 084°04'612.2
2017-Aug-13 14:30N 45°35' W 083°56'611.7
2017-Aug-13 14:01N 45°31' W 083°50'611.8
2017-Aug-13 13:30N 45°26' W 083°46'1 2.2
2017-Aug-13 13:00N 45°25' W 083°47'0 0.2
2017-Aug-13 12:30N 45°25' W 083°47'0 0.0
2017-Aug-13 12:00N 45°25' W 083°47'0 0.1
2017-Aug-13 11:30N 45°25' W 083°47'0 0.0
2017-Aug-13 11:00N 45°25' W 083°47'0 0.0
2017-Aug-13 10:30N 45°25' W 083°47'0 0.0
2017-Aug-13 10:00N 45°25' W 083°47'0 0.0
2017-Aug-13 09:30N 45°25' W 083°47'0 0.0
2017-Aug-13 09:00N 45°25' W 083°47'0 0.0
2017-Aug-13 08:30N 45°25' W 083°47'0 0.0
2017-Aug-13 08:00N 45°25' W 083°47'0 0.0
2017-Aug-13 07:30N 45°25' W 083°47'0 0.0
2017-Aug-13 07:00N 45°25' W 083°47'0 0.0
2017-Aug-13 06:30N 45°25' W 083°47'0 0.0
2017-Aug-13 06:00N 45°25' W 083°47'0 0.0
2017-Aug-13 05:30N 45°25' W 083°47'0 0.0
2017-Aug-13 05:00N 45°25' W 083°47'0 0.0
2017-Aug-13 04:30N 45°25' W 083°47'0 0.0
2017-Aug-13 04:00N 45°25' W 083°47'0 0.0
2017-Aug-13 03:30N 45°25' W 083°47'0 0.0
2017-Aug-13 03:00N 45°25' W 083°47'0 0.0
2017-Aug-13 02:30N 45°25' W 083°47'0 0.0
2017-Aug-13 02:00N 45°25' W 083°47'0 0.0
2017-Aug-13 01:30N 45°25' W 083°47'0 0.0
2017-Aug-13 01:00N 45°25' W 083°47'0 0.0
2017-Aug-13 00:30N 45°25' W 083°47'0 0.0
2017-Aug-13 00:00N 45°25' W 083°47'0 0.0
2017-Aug-12 23:30N 45°25' W 083°47'0 0.0
2017-Aug-12 23:00N 45°25' W 083°47'0 0.0
2017-Aug-12 22:30N 45°25' W 083°47'0 0.0
2017-Aug-12 22:00N 45°25' W 083°47'0 0.0
2017-Aug-12 21:30N 45°25' W 083°47'0 0.0
2017-Aug-12 21:00N 45°25' W 083°47'0 0.1
2017-Aug-12 20:30N 45°25' W 083°47'2 3.6
2017-Aug-12 20:00N 45°26' W 083°45'3 5.8
2017-Aug-12 19:30N 45°26' W 083°41'510.5
2017-Aug-12 19:00N 45°25' W 083°33'611.9
2017-Aug-12 18:30N 45°22' W 083°26'7711.8
2017-Aug-12 12:00N 44°12' W 082°42'3115.6 160 / 141011.110.8 18.3 15.5
2017-Aug-12 10:00N 43°42' W 082°30'6 6.0 280 / 161011.810.8 15.7 16.1
2017-Aug-12 09:00N 43°36' W 082°30'111 5.1 270 / 121011.810.8 20.2 15.5
2017-Aug-11 11:00N 41°54' W 081°30'7 0.5 180 / 181016.2 5.4 21.2 17.7
2017-Aug-10 20:00N 41°48' W 081°24'63 8.9 090 / 51019.2 5.4 26.3 22.2
2017-Aug-10 13:00N 41°48' W 082°48'1110.8 170 / 21020.310.8 24.4 19.4
2017-Aug-10 12:00N 41°54' W 083°00'104 8.7 1019.910.8 27.2 19.4
2017-Aug-10 00:00N 43°36' W 082°30'3010.0 150 / 141019.210.8 22.7 17.7
2017-Aug-09 21:00N 44°06' W 082°30'3812.7 120 / 81019.610.8 26.2 17.7
2017-Aug-09 18:00N 44°42' W 082°48'4013.3 070 / 121015.9 26.1
2017-Aug-09 15:00N 45°18' W 083°12'1316.2 1019.910.8 26.6 14.4
2017-Aug-09 14:11N 45°29' W 083°21'210.2
2017-Aug-09 14:00N 45°30' W 083°24'149.7 1020.310.8 24.9 14.4
2017-Aug-09 13:58N 45°31' W 083°24'612.4
2017-Aug-09 13:30N 45°36' W 083°29'612.3
2017-Aug-09 13:00N 45°41' W 083°35'2173.3
2017-Aug-09 13:00N 45°42' W 083°36'5 9.7 1018.910.8 18.8 14.9
2017-Aug-09 12:28N 45°46' W 083°41'2 4.8
2017-Aug-09 12:00N 45°48' W 083°42'4527.5 350 / 11018.610.8 18.8 12.7
2017-Aug-09 11:59N 45°51' W 083°46'612.5
2017-Aug-09 11:30N 45°55' W 083°52'710.8
2017-Aug-09 10:53N 46°01' W 083°55'12 9.6
2017-Aug-09 09:40N 46°11' W 084°05'210.6
2017-Aug-09 09:30N 46°12' W 084°07'4 7.6
2017-Aug-09 08:56N 46°15' W 084°11'3 5.8
2017-Aug-09 08:29N 46°17' W 084°13'4 7.9
2017-Aug-09 08:00N 46°21' W 084°13'4 8.2
2017-Aug-09 07:29N 46°25' W 084°15'45 7.0
2017-Aug-09 01:00N 46°48' W 085°12'1413.7 260 / 91016.910.8 14.9 9.9
2017-Aug-09 00:00N 46°54' W 085°30'17 8.7 280 / 101017.210.8 14.4 11.1
2017-Aug-08 22:00N 47°00' W 085°54'7913.2 320 / 121016.9 5.4 16.2 9.9
2017-Aug-08 16:00N 47°30' W 087°42'1717.3 270 / 121017.2 5.4 17.2 11.1
2017-Aug-08 15:00N 47°36' W 088°06'8 8.1 240 / 101016.510.8 18.8 9.9
2017-Aug-08 14:00N 47°36' W 088°18'1717.3 260 / 61016.210.8 17.7 9.4
2017-Aug-08 13:00N 47°30' W 088°42'4 4.1 290 / 151015.910.8 16.1 9.4
2017-Aug-08 12:00N 47°30' W 088°48'2110.6 290 / 151015.910.8 16.1 9.4
2017-Aug-08 10:00N 47°24' W 089°18'   260 / 181016.210.8 17.6 10.5

Dump ship's entire track history